createdAt,value
2022-11-09T00:00:14.517Z,14.02
2022-11-09T00:01:14.544Z,14.03
2022-11-09T00:02:14.496Z,14.07
2022-11-09T00:03:14.490Z,14.09
2022-11-09T00:04:14.489Z,14.10
2022-11-09T00:05:14.506Z,14.10
2022-11-09T00:06:14.447Z,14.07
2022-11-09T00:07:14.519Z,14.06
2022-11-09T00:08:14.445Z,14.12
2022-11-09T00:09:14.462Z,14.15
2022-11-09T00:10:14.458Z,14.18
2022-11-09T00:11:14.403Z,14.21
2022-11-09T00:12:14.399Z,14.21
2022-11-09T00:13:14.367Z,14.22
2022-11-09T00:14:14.360Z,14.22
2022-11-09T00:15:14.354Z,14.24
2022-11-09T00:16:14.388Z,14.28
2022-11-09T00:17:14.353Z,14.29
2022-11-09T00:18:14.355Z,14.35
2022-11-09T00:19:14.314Z,14.35
2022-11-09T00:20:14.282Z,14.36
2022-11-09T00:21:14.334Z,14.36
2022-11-09T00:22:14.297Z,14.36
2022-11-09T00:23:14.274Z,14.33
2022-11-09T00:24:14.233Z,14.29
2022-11-09T00:25:14.236Z,14.28
2022-11-09T00:26:14.255Z,14.28
2022-11-09T00:27:17.638Z,14.27
2022-11-09T00:28:14.208Z,14.27
2022-11-09T00:29:14.187Z,14.28
2022-11-09T00:30:14.190Z,14.28
2022-11-09T00:31:14.198Z,14.29
2022-11-09T00:32:14.208Z,14.29
2022-11-09T00:33:14.155Z,14.32
2022-11-09T00:34:14.145Z,14.33
2022-11-09T00:35:14.129Z,14.29
2022-11-09T00:36:14.107Z,14.32
2022-11-09T00:37:14.157Z,14.29
2022-11-09T00:38:14.127Z,14.29
2022-11-09T00:39:14.078Z,14.32
2022-11-09T00:40:14.059Z,14.28
2022-11-09T00:41:14.061Z,14.27
2022-11-09T00:42:14.059Z,14.25
2022-11-09T00:43:14.072Z,14.28
2022-11-09T00:44:14.008Z,14.29
2022-11-09T00:45:14.030Z,14.33
2022-11-09T00:46:14.013Z,14.33
2022-11-09T00:47:14.015Z,14.33
2022-11-09T00:48:14.023Z,14.32
2022-11-09T00:49:13.951Z,14.32
2022-11-09T00:50:13.954Z,14.29
2022-11-09T00:51:13.972Z,14.28
2022-11-09T00:52:13.938Z,14.29
2022-11-09T00:53:13.926Z,14.29
2022-11-09T00:54:13.956Z,14.32
2022-11-09T00:55:13.915Z,14.33
2022-11-09T00:56:13.893Z,14.35
2022-11-09T00:57:13.868Z,14.33
2022-11-09T00:58:13.895Z,14.29
2022-11-09T00:59:13.884Z,14.32
2022-11-09T01:00:13.833Z,14.33
2022-11-09T01:01:13.992Z,14.33
2022-11-09T01:02:13.824Z,14.33
2022-11-09T01:03:13.823Z,14.35
2022-11-09T01:04:13.811Z,14.32
2022-11-09T01:05:13.821Z,14.32
2022-11-09T01:06:13.774Z,14.32
2022-11-09T01:07:13.823Z,14.32
2022-11-09T01:08:13.770Z,14.29
2022-11-09T01:09:13.746Z,14.32
2022-11-09T01:10:13.788Z,14.29
2022-11-09T01:11:13.707Z,14.32
2022-11-09T01:12:13.743Z,14.29
2022-11-09T01:13:13.738Z,14.29
2022-11-09T01:14:13.711Z,14.29
2022-11-09T01:15:13.658Z,14.33
2022-11-09T01:16:13.668Z,14.35
2022-11-09T01:17:13.651Z,14.33
2022-11-09T01:18:13.618Z,14.36
2022-11-09T01:19:13.649Z,14.35
2022-11-09T01:20:13.618Z,14.35
2022-11-09T01:21:13.591Z,14.33
2022-11-09T01:22:13.590Z,14.33
2022-11-09T01:23:13.602Z,14.32
2022-11-09T01:24:13.613Z,14.33
2022-11-09T01:25:13.594Z,14.35
2022-11-09T01:26:13.542Z,14.35
2022-11-09T01:27:13.531Z,14.35
2022-11-09T01:28:13.502Z,14.37
2022-11-09T01:29:13.537Z,14.39
2022-11-09T01:30:13.542Z,14.40
2022-11-09T01:31:13.492Z,14.42
2022-11-09T01:32:13.477Z,14.40
2022-11-09T01:33:13.497Z,14.36
2022-11-09T01:34:13.475Z,14.36
2022-11-09T01:35:13.453Z,14.36
2022-11-09T01:36:13.422Z,14.36
2022-11-09T01:37:13.420Z,14.33
2022-11-09T01:38:13.415Z,14.32
2022-11-09T01:39:13.410Z,14.28
2022-11-09T01:40:13.474Z,14.24
2022-11-09T01:41:13.384Z,14.18
2022-11-09T01:42:13.375Z,14.15
2022-11-09T01:43:13.335Z,14.12
2022-11-09T01:44:13.336Z,14.07
2022-11-09T01:45:13.389Z,14.03
2022-11-09T01:46:13.322Z,13.96
2022-11-09T01:47:13.296Z,13.89
2022-11-09T01:48:13.311Z,13.88
2022-11-09T01:49:13.267Z,13.87
2022-11-09T01:50:13.300Z,13.88
2022-11-09T01:51:13.328Z,13.92
2022-11-09T01:52:13.249Z,13.96
2022-11-09T01:53:13.242Z,14.02
2022-11-09T01:54:13.221Z,14.09
2022-11-09T01:55:13.213Z,14.15
2022-11-09T01:56:13.251Z,14.21
2022-11-09T01:57:13.225Z,14.24
2022-11-09T01:58:13.166Z,14.24
2022-11-09T01:59:13.176Z,14.22
2022-11-09T02:00:13.181Z,14.20
2022-11-09T02:01:13.250Z,14.22
2022-11-09T02:02:13.155Z,14.20
2022-11-09T02:03:13.116Z,14.22
2022-11-09T02:04:13.117Z,14.21
2022-11-09T02:05:13.122Z,14.25
2022-11-09T02:06:13.092Z,14.24
2022-11-09T02:07:13.129Z,14.22
2022-11-09T02:08:13.096Z,14.22
2022-11-09T02:09:13.058Z,14.20
2022-11-09T02:10:13.047Z,14.20
2022-11-09T02:11:13.062Z,14.20
2022-11-09T02:12:13.013Z,14.20
2022-11-09T02:13:13.025Z,14.18
2022-11-09T02:14:12.985Z,14.17
2022-11-09T02:15:12.977Z,14.20
2022-11-09T02:16:13.006Z,14.20
2022-11-09T02:17:12.965Z,14.18
2022-11-09T02:18:12.973Z,14.15
2022-11-09T02:19:12.985Z,14.15
2022-11-09T02:20:12.929Z,14.15
2022-11-09T02:21:12.918Z,14.15
2022-11-09T02:22:12.937Z,14.12
2022-11-09T02:23:12.885Z,14.09
2022-11-09T02:24:12.900Z,14.04
2022-11-09T02:25:12.856Z,14.00
2022-11-09T02:26:12.894Z,13.97
2022-11-09T02:27:12.881Z,13.95
2022-11-09T02:28:12.851Z,13.96
2022-11-09T02:29:12.831Z,13.96
2022-11-09T02:30:12.821Z,13.97
2022-11-09T02:31:12.807Z,14.02
2022-11-09T02:32:12.801Z,14.04
2022-11-09T02:33:12.768Z,14.04
2022-11-09T02:34:12.772Z,14.02
2022-11-09T02:35:12.764Z,14.02
2022-11-09T02:36:12.761Z,14.00
2022-11-09T02:37:12.804Z,13.97
2022-11-09T02:38:12.733Z,13.92
2022-11-09T02:39:12.698Z,13.91
2022-11-09T02:40:12.714Z,13.95
2022-11-09T02:41:12.691Z,13.95
2022-11-09T02:42:16.959Z,13.92
2022-11-09T02:43:13.704Z,13.96
2022-11-09T02:44:12.641Z,13.96
2022-11-09T02:45:12.653Z,13.97
2022-11-09T02:46:12.651Z,13.97
2022-11-09T02:47:12.615Z,13.95
2022-11-09T02:48:12.721Z,13.92
2022-11-09T02:49:12.606Z,13.91
2022-11-09T02:50:12.596Z,13.89
2022-11-09T02:51:12.586Z,13.88
2022-11-09T02:52:12.588Z,13.89
2022-11-09T02:53:12.550Z,13.87
2022-11-09T02:54:12.553Z,13.85
2022-11-09T02:55:12.529Z,13.87
2022-11-09T02:56:12.528Z,13.89
2022-11-09T02:57:12.495Z,13.89
2022-11-09T02:58:12.526Z,13.91
2022-11-09T02:59:12.506Z,13.95
2022-11-09T03:00:12.471Z,13.92
2022-11-09T03:01:12.478Z,13.96
2022-11-09T03:02:12.435Z,13.97
2022-11-09T03:03:12.445Z,13.96
2022-11-09T03:04:12.424Z,13.97
2022-11-09T03:05:12.434Z,13.96
2022-11-09T03:06:12.450Z,13.91
2022-11-09T03:07:12.421Z,13.92
2022-11-09T03:08:12.371Z,13.95
2022-11-09T03:09:12.357Z,13.95
2022-11-09T03:10:12.392Z,13.92
2022-11-09T03:11:12.350Z,13.95
2022-11-09T03:12:12.353Z,13.91
2022-11-09T03:13:12.310Z,13.92
2022-11-09T03:14:12.338Z,13.92
2022-11-09T03:15:12.348Z,13.92
2022-11-09T03:16:12.269Z,13.91
2022-11-09T03:17:12.306Z,13.91
2022-11-09T03:18:12.259Z,13.96
2022-11-09T03:19:12.240Z,13.96
2022-11-09T03:20:12.244Z,14.00
2022-11-09T03:21:12.265Z,14.02
2022-11-09T03:22:12.255Z,14.03
2022-11-09T03:23:12.193Z,14.02
2022-11-09T03:24:12.195Z,14.02
2022-11-09T03:25:12.192Z,14.02
2022-11-09T03:26:12.226Z,14.06
2022-11-09T03:27:12.159Z,14.06
2022-11-09T03:28:12.142Z,14.06
2022-11-09T03:29:12.138Z,14.09
2022-11-09T03:30:12.134Z,14.09
2022-11-09T03:31:12.134Z,14.12
2022-11-09T03:32:12.137Z,14.10
2022-11-09T03:33:12.117Z,14.09
2022-11-09T03:34:12.099Z,14.07
2022-11-09T03:35:12.056Z,14.07
2022-11-09T03:36:12.060Z,14.03
2022-11-09T03:37:12.160Z,14.02
2022-11-09T03:38:12.035Z,14.00
2022-11-09T03:39:12.018Z,14.00
2022-11-09T03:40:12.032Z,13.99
2022-11-09T03:41:12.021Z,13.99
2022-11-09T03:42:11.999Z,14.00
2022-11-09T03:43:12.009Z,13.99
2022-11-09T03:44:11.993Z,13.97
2022-11-09T03:45:11.991Z,13.97
2022-11-09T03:46:11.940Z,13.96
2022-11-09T03:47:11.956Z,13.91
2022-11-09T03:48:11.920Z,13.87
2022-11-09T03:49:11.933Z,13.87
2022-11-09T03:50:11.979Z,13.85
2022-11-09T03:51:11.880Z,13.84
2022-11-09T03:52:11.874Z,13.85
2022-11-09T03:53:11.854Z,13.84
2022-11-09T03:54:11.864Z,13.84
2022-11-09T03:55:11.871Z,13.82
2022-11-09T03:56:11.877Z,13.81
2022-11-09T03:57:11.847Z,13.81
2022-11-09T03:58:11.806Z,13.82
2022-11-09T03:59:11.808Z,13.78
2022-11-09T04:00:11.773Z,13.77
2022-11-09T04:01:11.956Z,13.77
2022-11-09T04:02:11.825Z,13.75
2022-11-09T04:03:11.744Z,13.75
2022-11-09T04:04:11.787Z,13.75
2022-11-09T04:05:11.728Z,13.77
2022-11-09T04:06:11.756Z,13.75
2022-11-09T04:07:11.792Z,13.75
2022-11-09T04:08:11.688Z,13.71
2022-11-09T04:09:11.703Z,13.70
2022-11-09T04:10:11.709Z,13.69
2022-11-09T04:11:11.660Z,13.67
2022-11-09T04:12:11.680Z,13.66
2022-11-09T04:13:11.626Z,13.63
2022-11-09T04:14:11.666Z,13.64
2022-11-09T04:15:11.598Z,13.63
2022-11-09T04:16:11.606Z,13.62
2022-11-09T04:17:11.623Z,13.60
2022-11-09T04:18:11.568Z,13.59
2022-11-09T04:19:11.611Z,13.57
2022-11-09T04:20:11.577Z,13.59
2022-11-09T04:21:11.564Z,13.57
2022-11-09T04:22:11.549Z,13.54
2022-11-09T04:23:11.510Z,13.55
2022-11-09T04:24:11.540Z,13.55
2022-11-09T04:25:11.533Z,13.51
2022-11-09T04:26:11.516Z,13.51
2022-11-09T04:27:11.464Z,13.48
2022-11-09T04:28:11.513Z,13.48
2022-11-09T04:29:11.440Z,13.46
2022-11-09T04:30:11.477Z,13.45
2022-11-09T04:31:11.426Z,13.44
2022-11-09T04:32:11.412Z,13.41
2022-11-09T04:33:11.402Z,13.39
2022-11-09T04:34:11.425Z,13.38
2022-11-09T04:35:11.373Z,13.32
2022-11-09T04:36:11.402Z,13.30
2022-11-09T04:37:11.367Z,13.30
2022-11-09T04:38:11.345Z,13.29
2022-11-09T04:39:11.375Z,13.29
2022-11-09T04:40:11.378Z,13.28
2022-11-09T04:41:11.319Z,13.26
2022-11-09T04:42:11.350Z,13.26
2022-11-09T04:43:11.308Z,13.25
2022-11-09T04:44:11.275Z,13.22
2022-11-09T04:45:11.324Z,13.22
2022-11-09T04:46:11.304Z,13.20
2022-11-09T04:47:11.246Z,13.17
2022-11-09T04:48:11.245Z,13.12
2022-11-09T04:49:11.240Z,13.10
2022-11-09T04:50:11.267Z,13.05
2022-11-09T04:51:11.213Z,13.03
2022-11-09T04:52:11.201Z,13.03
2022-11-09T04:53:11.191Z,13.01
2022-11-09T04:54:11.175Z,12.97
2022-11-09T04:55:11.222Z,12.95
2022-11-09T04:56:11.153Z,12.93
2022-11-09T04:57:11.185Z,12.92
2022-11-09T04:58:11.108Z,12.92
2022-11-09T04:59:11.110Z,12.92
2022-11-09T05:00:11.140Z,12.93
2022-11-09T05:01:11.124Z,12.96
2022-11-09T05:02:11.114Z,12.96
2022-11-09T05:03:11.075Z,12.95
2022-11-09T05:04:11.129Z,12.95
2022-11-09T05:05:11.053Z,12.95
2022-11-09T05:06:11.054Z,12.93
2022-11-09T05:07:11.089Z,12.93
2022-11-09T05:08:11.032Z,12.93
2022-11-09T05:09:10.992Z,12.93
2022-11-09T05:10:11.019Z,12.93
2022-11-09T05:11:10.988Z,12.96
2022-11-09T05:12:10.963Z,12.93
2022-11-09T05:13:10.954Z,12.96
2022-11-09T05:14:11.014Z,12.96
2022-11-09T05:15:10.925Z,12.96
2022-11-09T05:16:10.915Z,12.96
2022-11-09T05:17:10.939Z,12.95
2022-11-09T05:18:10.895Z,12.95
2022-11-09T05:19:10.898Z,12.95
2022-11-09T05:20:10.895Z,12.96
2022-11-09T05:21:10.890Z,12.95
2022-11-09T05:22:10.859Z,12.96
2022-11-09T05:23:10.899Z,12.95
2022-11-09T05:24:10.826Z,12.93
2022-11-09T05:25:10.831Z,12.93
2022-11-09T05:26:10.850Z,12.92
2022-11-09T05:27:10.787Z,12.89
2022-11-09T05:28:10.861Z,12.90
2022-11-09T05:29:10.827Z,12.87
2022-11-09T05:30:10.772Z,12.87
2022-11-09T05:31:10.760Z,12.86
2022-11-09T05:32:10.752Z,12.86
2022-11-09T05:33:10.719Z,12.86
2022-11-09T05:34:10.782Z,12.87
2022-11-09T05:35:10.742Z,12.86
2022-11-09T05:36:10.724Z,12.87
2022-11-09T05:37:10.693Z,12.89
2022-11-09T05:38:10.708Z,12.89
2022-11-09T05:39:10.673Z,12.89
2022-11-09T05:40:10.692Z,12.87
2022-11-09T05:41:10.631Z,12.90
2022-11-09T05:42:10.648Z,12.89
2022-11-09T05:43:10.645Z,12.89
2022-11-09T05:44:10.605Z,12.90
2022-11-09T05:45:40.326Z,12.90
2022-11-09T05:46:11.613Z,12.89
2022-11-09T05:47:10.563Z,12.90
2022-11-09T05:48:10.577Z,12.87
2022-11-09T05:49:10.586Z,12.89
2022-11-09T05:50:10.546Z,12.90
2022-11-09T05:51:10.544Z,12.92
2022-11-09T05:52:10.534Z,12.90
2022-11-09T05:53:10.507Z,12.92
2022-11-09T05:54:10.508Z,12.89
2022-11-09T05:55:10.484Z,12.90
2022-11-09T05:56:10.510Z,12.87
2022-11-09T05:57:10.499Z,12.86
2022-11-09T05:58:10.436Z,12.86
2022-11-09T05:59:10.427Z,12.83
2022-11-09T06:00:11.193Z,12.82
2022-11-09T06:01:10.442Z,12.82
2022-11-09T06:02:10.512Z,12.79
2022-11-09T06:03:10.409Z,12.78
2022-11-09T06:04:10.390Z,12.78
2022-11-09T06:05:10.359Z,12.77
2022-11-09T06:06:10.361Z,12.79
2022-11-09T06:07:10.370Z,12.77
2022-11-09T06:08:10.403Z,12.78
2022-11-09T06:09:10.340Z,12.77
2022-11-09T06:10:10.357Z,12.75
2022-11-09T06:11:10.302Z,12.74
2022-11-09T06:12:10.293Z,12.71
2022-11-09T06:13:10.303Z,12.70
2022-11-09T06:14:10.280Z,12.67
2022-11-09T06:15:10.257Z,12.70
2022-11-09T06:16:10.244Z,12.71
2022-11-09T06:17:10.221Z,12.70
2022-11-09T06:18:10.253Z,12.70
2022-11-09T06:19:10.222Z,12.68
2022-11-09T06:20:10.224Z,12.68
2022-11-09T06:21:10.197Z,12.68
2022-11-09T06:22:10.205Z,12.65
2022-11-09T06:23:10.181Z,12.65
2022-11-09T06:24:10.158Z,12.67
2022-11-09T06:25:10.192Z,12.65
2022-11-09T06:26:10.195Z,12.65
2022-11-09T06:27:10.171Z,12.68
2022-11-09T06:28:10.125Z,12.68
2022-11-09T06:29:10.092Z,12.71
2022-11-09T06:30:10.140Z,12.71
2022-11-09T06:31:10.194Z,12.70
2022-11-09T06:32:10.054Z,12.68
2022-11-09T06:33:10.049Z,12.67
2022-11-09T06:34:10.037Z,12.67
2022-11-09T06:35:10.266Z,12.67
2022-11-09T06:36:10.021Z,12.70
2022-11-09T06:37:10.022Z,12.71
2022-11-09T06:38:10.023Z,12.72
2022-11-09T06:39:10.001Z,12.74
2022-11-09T06:40:10.011Z,12.72
2022-11-09T06:41:09.959Z,12.72
2022-11-09T06:42:10.009Z,12.77
2022-11-09T06:43:09.939Z,12.75
2022-11-09T06:44:09.924Z,12.75
2022-11-09T06:45:09.925Z,12.74
2022-11-09T06:46:09.950Z,12.71
2022-11-09T06:47:09.901Z,12.70
2022-11-09T06:48:09.893Z,12.68
2022-11-09T06:49:09.864Z,12.70
2022-11-09T06:50:09.865Z,12.71
2022-11-09T06:51:09.911Z,12.72
2022-11-09T06:52:09.841Z,12.71
2022-11-09T06:53:10.557Z,12.71
2022-11-09T06:54:09.823Z,12.71
2022-11-09T06:55:09.815Z,12.72
2022-11-09T06:56:09.795Z,12.74
2022-11-09T06:57:09.806Z,12.74
2022-11-09T06:58:09.814Z,12.78
2022-11-09T06:59:09.789Z,12.78
2022-11-09T07:00:09.782Z,12.78
2022-11-09T07:01:09.895Z,12.78
2022-11-09T07:02:09.727Z,12.77
2022-11-09T07:03:09.740Z,12.77
2022-11-09T07:04:09.746Z,12.75
2022-11-09T07:05:09.685Z,12.75
2022-11-09T07:06:09.689Z,12.75
2022-11-09T07:07:09.699Z,12.77
2022-11-09T07:08:09.665Z,12.74
2022-11-09T07:09:09.699Z,12.74
2022-11-09T07:10:09.625Z,12.72
2022-11-09T07:11:09.618Z,12.70
2022-11-09T07:12:09.630Z,12.70
2022-11-09T07:13:09.635Z,12.70
2022-11-09T07:14:09.589Z,12.71
2022-11-09T07:15:09.597Z,12.71
2022-11-09T07:16:09.632Z,12.71
2022-11-09T07:17:09.582Z,12.72
2022-11-09T07:18:09.580Z,12.72
2022-11-09T07:19:09.539Z,12.74
2022-11-09T07:20:09.533Z,12.74
2022-11-09T07:21:13.977Z,12.74
2022-11-09T07:22:09.512Z,12.74
2022-11-09T07:23:09.481Z,12.72
2022-11-09T07:24:09.486Z,12.71
2022-11-09T07:25:09.465Z,12.71
2022-11-09T07:26:09.724Z,12.71
2022-11-09T07:27:09.432Z,12.74
2022-11-09T07:28:09.514Z,12.72
2022-11-09T07:29:09.435Z,12.71
2022-11-09T07:30:09.413Z,12.74
2022-11-09T07:31:09.397Z,12.72
2022-11-09T07:32:09.404Z,12.72
2022-11-09T07:33:10.465Z,12.72
2022-11-09T07:34:09.404Z,12.72
2022-11-09T07:35:09.363Z,12.74
2022-11-09T07:36:09.361Z,12.75
2022-11-09T07:37:09.558Z,12.77
2022-11-09T07:38:09.347Z,12.79
2022-11-09T07:39:09.347Z,12.82
2022-11-09T07:40:09.326Z,12.79
2022-11-09T07:41:09.276Z,12.78
2022-11-09T07:42:09.276Z,12.78
2022-11-09T07:43:09.247Z,12.79
2022-11-09T07:44:09.281Z,12.79
2022-11-09T07:45:09.276Z,12.79
2022-11-09T07:46:09.265Z,12.78
2022-11-09T07:47:10.004Z,12.82
2022-11-09T07:48:09.186Z,12.82
2022-11-09T07:49:09.246Z,12.86
2022-11-09T07:50:09.187Z,12.86
2022-11-09T07:51:09.197Z,12.87
2022-11-09T07:52:09.161Z,12.86
2022-11-09T07:53:09.174Z,12.89
2022-11-09T07:54:09.173Z,12.90
2022-11-09T07:55:09.205Z,12.92
2022-11-09T07:56:09.126Z,12.90
2022-11-09T07:57:09.109Z,12.90
2022-11-09T07:58:09.114Z,12.90
2022-11-09T07:59:09.103Z,12.89
2022-11-09T08:00:09.094Z,12.90
2022-11-09T08:01:09.057Z,12.92
2022-11-09T08:02:09.391Z,12.93
2022-11-09T08:03:09.049Z,12.97
2022-11-09T08:04:09.010Z,13.01
2022-11-09T08:05:09.031Z,13.00
2022-11-09T08:06:10.325Z,13.03
2022-11-09T08:07:09.045Z,13.04
2022-11-09T08:08:09.086Z,13.08
2022-11-09T08:09:08.974Z,13.10
2022-11-09T08:10:08.974Z,13.11
2022-11-09T08:11:08.973Z,13.08
2022-11-09T08:12:08.996Z,13.11
2022-11-09T08:13:08.945Z,13.15
2022-11-09T08:14:08.892Z,13.11
2022-11-09T08:15:08.915Z,13.12
2022-11-09T08:16:08.874Z,13.15
2022-11-09T08:17:08.874Z,13.17
2022-11-09T08:18:08.855Z,13.25
2022-11-09T08:19:08.865Z,13.26
2022-11-09T08:20:08.828Z,13.28
2022-11-09T08:21:08.832Z,13.28
2022-11-09T08:22:08.843Z,13.29
2022-11-09T08:23:08.795Z,13.30
2022-11-09T08:24:08.837Z,13.32
2022-11-09T08:25:08.865Z,13.39
2022-11-09T08:26:08.769Z,13.38
2022-11-09T08:27:08.760Z,13.36
2022-11-09T08:28:15.859Z,13.38
2022-11-09T08:29:09.749Z,13.39
2022-11-09T08:30:08.742Z,13.42
2022-11-09T08:31:08.740Z,13.44
2022-11-09T08:32:08.698Z,13.39
2022-11-09T08:33:08.692Z,13.42
2022-11-09T08:34:08.715Z,13.38
2022-11-09T08:35:08.686Z,13.42
2022-11-09T08:36:08.691Z,13.44
2022-11-09T08:37:08.670Z,13.49
2022-11-09T08:38:11.664Z,13.54
2022-11-09T08:39:08.621Z,13.54
2022-11-09T08:40:09.684Z,13.54
2022-11-09T08:41:13.217Z,13.57
2022-11-09T08:42:09.632Z,13.62
2022-11-09T08:43:08.949Z,13.67
2022-11-09T08:44:08.571Z,13.78
2022-11-09T08:45:08.555Z,13.82
2022-11-09T08:46:08.547Z,13.82
2022-11-09T08:47:08.584Z,13.81
2022-11-09T08:48:08.516Z,13.85
2022-11-09T08:49:08.850Z,13.84
2022-11-09T08:50:08.680Z,13.82
2022-11-09T08:51:08.551Z,13.85
2022-11-09T08:52:08.475Z,13.85
2022-11-09T08:53:08.462Z,13.85
2022-11-09T08:54:08.463Z,13.85
2022-11-09T08:55:08.518Z,13.84
2022-11-09T08:56:08.416Z,13.75
2022-11-09T08:57:08.468Z,13.73
2022-11-09T08:58:08.394Z,13.75
2022-11-09T08:59:08.388Z,13.73
2022-11-09T09:00:08.397Z,13.71
2022-11-09T09:01:12.257Z,13.70
2022-11-09T09:02:09.454Z,13.69
2022-11-09T09:03:08.358Z,13.67
2022-11-09T09:04:08.344Z,13.69
2022-11-09T09:05:08.349Z,13.70
2022-11-09T09:06:08.320Z,13.73
2022-11-09T09:07:08.407Z,13.79
2022-11-09T09:08:08.302Z,13.87
2022-11-09T09:09:09.299Z,13.96
2022-11-09T09:10:08.270Z,14.00
2022-11-09T09:11:08.239Z,14.04
2022-11-09T09:12:08.510Z,14.07
2022-11-09T09:13:08.249Z,14.21
2022-11-09T09:14:08.240Z,14.25
2022-11-09T09:15:08.235Z,14.28
2022-11-09T09:16:08.209Z,14.29
2022-11-09T09:17:08.182Z,14.32
2022-11-09T09:18:08.210Z,14.36
2022-11-09T09:19:08.195Z,14.32
2022-11-09T09:20:08.153Z,14.24
2022-11-09T09:21:08.134Z,14.24
2022-11-09T09:22:08.371Z,14.24
2022-11-09T09:23:08.142Z,14.22
2022-11-09T09:24:08.112Z,14.18
2022-11-09T09:25:08.094Z,14.18
2022-11-09T09:26:08.114Z,14.14
2022-11-09T09:27:08.122Z,14.15
2022-11-09T09:28:08.085Z,14.18
2022-11-09T09:29:08.067Z,14.24
2022-11-09T09:30:08.058Z,14.28
2022-11-09T09:31:08.045Z,14.42
2022-11-09T09:32:08.073Z,14.51
2022-11-09T09:33:08.027Z,14.60
2022-11-09T09:34:07.974Z,14.83
2022-11-09T09:35:07.987Z,15.01
2022-11-09T09:36:08.988Z,15.29
2022-11-09T09:37:08.009Z,15.80
2022-11-09T09:38:07.979Z,16.23
2022-11-09T09:39:07.926Z,16.56
2022-11-09T09:40:08.997Z,16.31
2022-11-09T09:41:07.907Z,16.89
2022-11-09T09:42:07.900Z,18.07
2022-11-09T09:43:07.924Z,19.06
2022-11-09T09:44:07.887Z,19.19
2022-11-09T09:45:07.882Z,19.55
2022-11-09T09:46:07.888Z,18.76
2022-11-09T09:47:07.858Z,17.81
2022-11-09T09:48:07.840Z,17.46
2022-11-09T09:49:07.911Z,17.00
2022-11-09T09:50:07.857Z,16.63
2022-11-09T09:51:07.833Z,16.27
2022-11-09T09:52:07.848Z,16.00
2022-11-09T09:53:23.668Z,15.78
2022-11-09T09:54:08.774Z,15.74
2022-11-09T09:55:07.784Z,15.68
2022-11-09T09:56:07.777Z,15.51
2022-11-09T09:57:07.886Z,15.39
2022-11-09T09:58:07.797Z,15.29
2022-11-09T09:59:08.193Z,15.29
2022-11-09T10:00:07.708Z,15.34
2022-11-09T10:01:07.852Z,15.31
2022-11-09T10:02:07.721Z,15.32
2022-11-09T10:03:07.687Z,15.31
2022-11-09T10:04:08.564Z,15.27
2022-11-09T10:05:07.993Z,15.35
2022-11-09T10:06:07.678Z,15.38
2022-11-09T10:07:08.243Z,15.36
2022-11-09T10:08:08.499Z,15.35
2022-11-09T10:09:07.595Z,15.28
2022-11-09T10:10:07.689Z,15.23
2022-11-09T10:11:07.748Z,15.20
2022-11-09T10:12:07.569Z,15.09
2022-11-09T10:13:07.779Z,15.07
2022-11-09T10:14:08.195Z,15.09
2022-11-09T10:15:07.776Z,15.02
2022-11-09T10:16:08.060Z,14.95
2022-11-09T10:17:07.582Z,14.92
2022-11-09T10:18:07.506Z,14.92
2022-11-09T10:19:07.653Z,14.94
2022-11-09T10:20:08.180Z,14.92
2022-11-09T10:21:08.026Z,14.92
2022-11-09T10:22:07.502Z,14.95
2022-11-09T10:23:07.550Z,14.99
2022-11-09T10:24:08.101Z,15.03
2022-11-09T10:26:11.327Z,15.09
2022-11-09T10:27:08.593Z,15.13
2022-11-09T10:28:12.876Z,15.17
2022-11-09T10:29:15.984Z,15.25
2022-11-09T10:30:09.156Z,15.28
2022-11-09T10:31:08.217Z,15.34
2022-11-09T10:32:07.776Z,15.38
2022-11-09T10:33:07.768Z,15.43
2022-11-09T10:34:08.269Z,15.43
2022-11-09T10:35:07.696Z,15.41
2022-11-09T10:36:08.450Z,15.39
2022-11-09T10:37:07.364Z,15.36
2022-11-09T10:38:07.266Z,15.35
2022-11-09T10:39:07.903Z,15.29
2022-11-09T10:40:07.265Z,15.29
2022-11-09T10:41:07.289Z,15.27
2022-11-09T10:42:07.269Z,15.25
2022-11-09T10:43:07.687Z,15.25
2022-11-09T10:44:07.210Z,15.23
2022-11-09T10:45:07.213Z,15.28
2022-11-09T10:46:07.196Z,15.27
2022-11-09T10:47:07.184Z,15.31
2022-11-09T10:48:07.160Z,15.35
2022-11-09T10:49:07.180Z,15.43
2022-11-09T10:50:07.209Z,15.49
2022-11-09T10:51:07.163Z,15.57
2022-11-09T10:52:07.224Z,15.65
2022-11-09T10:53:07.142Z,15.72
2022-11-09T10:54:07.112Z,15.76
2022-11-09T10:55:10.265Z,15.84
2022-11-09T10:56:07.083Z,15.90
2022-11-09T10:57:07.324Z,15.97
2022-11-09T10:58:07.048Z,15.96
2022-11-09T10:59:07.024Z,16.04
2022-11-09T11:00:07.065Z,16.07
2022-11-09T11:01:07.148Z,16.15
2022-11-09T11:02:07.212Z,16.24
2022-11-09T11:03:07.287Z,16.28
2022-11-09T11:04:06.997Z,16.25
2022-11-09T11:05:08.070Z,16.24
2022-11-09T11:06:06.954Z,16.25
2022-11-09T11:07:07.307Z,16.21
2022-11-09T11:08:06.973Z,16.17
2022-11-09T11:09:07.644Z,16.17
2022-11-09T11:10:06.920Z,16.12
2022-11-09T11:11:32.184Z,16.15
2022-11-09T11:12:08.538Z,16.14
2022-11-09T11:13:06.959Z,16.12
2022-11-09T11:14:08.238Z,16.08
2022-11-09T11:15:06.903Z,16.04
2022-11-09T11:16:06.920Z,16.00
2022-11-09T11:17:06.851Z,16.02
2022-11-09T11:18:07.130Z,16.05
2022-11-09T11:19:07.210Z,15.97
2022-11-09T11:20:07.796Z,16.01
2022-11-09T11:21:07.818Z,16.07
2022-11-09T11:22:07.003Z,16.12
2022-11-09T11:23:07.911Z,16.35
2022-11-09T11:24:06.980Z,16.43
2022-11-09T11:25:07.656Z,16.39
2022-11-09T11:26:07.303Z,16.25
2022-11-09T11:27:10.531Z,16.20
2022-11-09T11:28:06.981Z,16.15
2022-11-09T11:29:06.831Z,16.09
2022-11-09T11:30:06.724Z,16.07
2022-11-09T11:31:07.006Z,16.07
2022-11-09T11:32:06.654Z,15.94
2022-11-09T11:33:07.414Z,15.86
2022-11-09T11:34:06.691Z,15.82
2022-11-09T11:35:06.749Z,15.84
2022-11-09T11:36:06.709Z,15.82
2022-11-09T11:37:06.609Z,15.80
2022-11-09T11:38:06.615Z,15.80
2022-11-09T11:39:06.916Z,15.94
2022-11-09T11:40:06.589Z,16.07
2022-11-09T11:41:06.812Z,16.15
2022-11-09T11:42:06.584Z,16.41
2022-11-09T11:43:06.614Z,16.49
2022-11-09T11:44:07.214Z,16.71
2022-11-09T11:45:33.948Z,16.85
2022-11-09T11:46:07.701Z,16.96
2022-11-09T11:47:06.518Z,16.98
2022-11-09T11:48:06.520Z,17.08
2022-11-09T11:49:06.539Z,17.12
2022-11-09T11:50:06.532Z,17.21
2022-11-09T11:51:06.483Z,17.41
2022-11-09T11:52:07.228Z,17.72
2022-11-09T11:53:07.100Z,18.10
2022-11-09T11:54:06.592Z,18.27
2022-11-09T11:55:06.698Z,18.65
2022-11-09T11:56:06.401Z,18.63
2022-11-09T11:57:06.435Z,18.44
2022-11-09T11:58:06.435Z,18.47
2022-11-09T11:59:06.428Z,18.36
2022-11-09T12:00:06.372Z,18.36
2022-11-09T12:01:06.387Z,18.42
2022-11-09T12:02:06.367Z,18.65
2022-11-09T12:03:06.461Z,18.41
2022-11-09T12:04:06.307Z,18.60
2022-11-09T12:05:06.288Z,18.91
2022-11-09T12:06:06.298Z,19.10
2022-11-09T12:07:06.341Z,19.21
2022-11-09T12:08:06.269Z,19.31
2022-11-09T12:09:06.268Z,19.16
2022-11-09T12:10:06.216Z,19.11
2022-11-09T12:11:06.226Z,19.00
2022-11-09T12:12:06.231Z,19.13
2022-11-09T12:13:06.221Z,19.14
2022-11-09T12:14:06.219Z,19.40
2022-11-09T12:15:06.198Z,19.46
2022-11-09T12:16:06.160Z,19.29
2022-11-09T12:17:06.140Z,19.31
2022-11-09T12:18:06.183Z,19.51
2022-11-09T12:19:06.197Z,19.66
2022-11-09T12:20:06.133Z,19.58
2022-11-09T12:21:06.154Z,19.29
2022-11-09T12:22:06.100Z,18.95
2022-11-09T12:23:06.089Z,18.82
2022-11-09T12:24:06.090Z,18.62
2022-11-09T12:25:06.056Z,18.47
2022-11-09T12:26:09.471Z,18.60
2022-11-09T12:27:25.996Z,18.70
2022-11-09T12:28:07.034Z,18.66
2022-11-09T12:29:07.088Z,18.63
2022-11-09T12:30:06.000Z,18.80
2022-11-09T12:31:06.017Z,18.91
2022-11-09T12:32:06.454Z,18.78
2022-11-09T12:33:05.989Z,18.78
2022-11-09T12:34:06.114Z,18.72
2022-11-09T12:35:05.937Z,18.62
2022-11-09T12:36:05.970Z,18.57
2022-11-09T12:37:05.957Z,18.48
2022-11-09T12:38:05.927Z,18.26
2022-11-09T12:39:05.910Z,18.00
2022-11-09T12:40:05.912Z,17.77
2022-11-09T12:41:05.895Z,17.62
2022-11-09T12:42:05.878Z,17.49
2022-11-09T12:43:05.894Z,17.40
2022-11-09T12:44:05.829Z,17.38
2022-11-09T12:45:05.862Z,17.38
2022-11-09T12:46:06.063Z,17.38
2022-11-09T12:47:05.820Z,17.34
2022-11-09T12:48:05.832Z,17.30
2022-11-09T12:49:05.804Z,17.23
2022-11-09T12:50:05.796Z,17.14
2022-11-09T12:51:05.766Z,17.08
2022-11-09T12:52:05.764Z,17.11
2022-11-09T12:53:05.741Z,17.14